Time;durP1;ratioP1;P1;durP2;ratioP2;P2;SDS_P1;SDS_P2;PMS_P1;PMS_P2;Temp;Humidity;BMP_temperature;BMP_pressure;BME280_temperature;BME280_humidity;BME280_pressure;Samples;Min_cycle;Max_cycle;Signal;HPM_P1;HPM_P2
2023/01/07 10:18:45;;;;;;;135.23;98.67;;;;;;;22.12;38.19;96135.84;5062600;22;20609;-49
2023/01/07 10:21:20;;;;;;;90.40;64.07;;;;;;;22.22;38.22;96134.09;5008355;28;20540;-57
2023/01/07 10:23:52;;;;;;;60.40;43.93;;;;;;;22.31;37.33;96125.22;5004916;28;20962;-57
2023/01/07 10:26:22;;;;;;;41.63;30.90;;;;;;;22.34;38.75;96126.94;5005549;28;20454;-58
2023/01/07 10:33:46;;;;;;;4.00;3.70;;;;;;;27.17;22.89;96114.03;5044597;22;20600;-41
2023/01/07 10:36:31;;;;;;;3.87;3.57;;;;;;;32.33;17.81;96114.50;5038972;28;20523;-42
2023/01/07 10:39:15;;;;;;;3.90;3.60;;;;;;;32.10;17.43;96113.63;5026457;28;20443;-42
2023/01/07 10:42:04;;;;;;;3.80;3.40;;;;;;;33.06;16.54;96117.13;5035381;28;20429;-41
2023/01/07 10:44:46;;;;;;;8.20;3.50;;;;;;;33.04;15.67;96111.28;5041006;28;20839;-42
2023/01/07 10:47:29;;;;;;;3.13;2.93;;;;;;;35.10;14.68;96113.66;5037305;28;20976;-43
2023/01/07 10:50:19;;;;;;;2.50;2.40;;;;;;;35.90;15.26;96110.75;5044400;28;20931;-41
2023/01/07 10:53:06;;;;;;;2.50;2.30;;;;;;;29.01;19.26;96092.34;5040009;28;20539;-45
2023/01/07 10:56:10;;;;;;;2.40;2.20;;;;;;;29.47;19.41;96084.59;5041318;28;20435;-43
2023/01/07 10:58:40;;;;;;;5.23;4.83;;;;;;;30.59;18.41;96075.28;4983393;28;20446;-43
2023/01/07 11:01:06;;;;;;;2.50;2.40;;;;;;;28.49;19.65;96072.66;4981182;28;20561;-43
2023/01/07 11:03:32;;;;;;;2.30;2.13;;;;;;;26.35;21.93;96070.00;4981239;28;20450;-43
2023/01/07 11:06:01;;;;;;;2.00;1.90;;;;;;;26.70;21.42;96066.03;4978736;28;20400;-43
2023/01/07 11:08:53;;;;;;;2.27;2.17;;;;;;;27.10;21.39;96061.06;4976727;28;20439;-42
2023/01/07 11:11:19;;;;;;;2.20;2.10;;;;;;;25.44;23.35;96059.00;4969804;28;20603;-43
2023/01/07 11:13:55;;;;;;;2.10;2.00;;;;;;;24.06;24.93;96065.53;4981054;28;20931;-43
2023/01/07 11:16:24;;;;;;;2.60;2.40;;;;;;;22.71;26.46;96060.47;4976281;28;20199;-42
2023/01/07 11:18:57;;;;;;;2.47;2.37;;;;;;;22.40;26.63;96054.56;4966940;28;20466;-42
2023/01/07 11:21:32;;;;;;;2.90;2.10;;;;;;;21.20;28.99;96042.53;4978640;28;20480;-41
2023/01/07 11:23:57;;;;;;;2.50;2.33;;;;;;;24.46;25.07;96063.78;4980206;28;20478;-43
2023/01/07 11:26:30;;;;;;;2.57;2.33;;;;;;;23.45;25.17;96045.50;4981889;28;20443;-42
2023/01/07 11:29:15;;;;;;;7.00;6.33;;;;;;;23.20;26.88;96044.41;5003847;28;20214;-43
2023/01/07 11:31:57;;;;;;;3.67;2.60;;;;;;;25.60;23.44;96043.53;5043934;28;20478;-42
2023/01/07 11:34:26;;;;;;;2.70;2.50;;;;;;;26.44;23.05;96044.72;5007945;28;20536;-42
2023/01/07 11:36:52;;;;;;;3.07;2.77;;;;;;;28.92;20.03;96047.66;5001123;28;20448;-42
2023/01/07 11:39:20;;;;;;;2.70;2.50;;;;;;;26.74;21.49;96032.47;5001253;28;20437;-43
2023/01/07 11:41:54;;;;;;;2.50;2.40;;;;;;;26.13;21.93;96036.97;5001602;28;20254;-42
2023/01/07 11:44:20;;;;;;;2.10;2.00;;;;;;;28.03;20.38;96037.69;4989651;28;20437;-42
2023/01/07 11:46:45;;;;;;;3.00;2.43;;;;;;;28.62;20.14;96024.06;4986599;28;20778;-43
2023/01/07 11:49:23;;;;;;;2.40;2.30;;;;;;;30.97;17.85;96032.47;4985758;28;20179;-43
2023/01/07 11:51:48;;;;;;;2.40;2.20;;;;;;;28.47;19.68;96024.28;4989739;28;21114;-43
2023/01/07 11:54:27;;;;;;;2.40;2.30;;;;;;;27.42;20.72;96019.84;5002863;28;20455;-43
2023/01/07 11:57:09;;;;;;;3.30;3.10;;;;;;;29.61;19.00;96009.72;4989089;28;20180;-43
2023/01/07 11:59:34;;;;;;;2.63;2.53;;;;;;;31.84;17.17;96019.22;4986497;28;20426;-44
2023/01/07 12:01:59;;;;;;;2.23;2.13;;;;;;;31.66;16.88;96020.88;4993662;28;21005;-44
2023/01/07 12:04:32;;;;;;;2.87;2.63;;;;;;;33.45;15.95;96018.13;4994110;28;20789;-44
2023/01/07 12:07:05;;;;;;;3.10;2.80;;;;;;;26.82;21.08;96010.53;4989135;28;20191;-43
2023/01/07 12:09:31;;;;;;;3.20;3.00;;;;;;;25.34;22.92;95995.97;4991884;28;20507;-43
2023/01/07 12:12:06;;;;;;;3.10;2.80;;;;;;;28.57;19.92;96002.41;4988724;28;20463;-45
2023/01/07 12:14:33;;;;;;;3.80;3.60;;;;;;;27.99;20.26;96003.34;5002374;28;20185;-44
2023/01/07 12:17:14;;;;;;;5.67;5.17;;;;;;;25.93;22.45;95989.94;4988890;28;20461;-43
2023/01/07 12:19:40;;;;;;;4.43;3.53;;;;;;;30.22;18.47;95995.06;4977735;28;20447;-44
2023/01/07 12:22:24;;;;;;;2.97;2.77;;;;;;;31.79;16.82;95996.78;4984703;28;20438;-43
2023/01/07 12:25:11;;;;;;;2.90;2.80;;;;;;;30.52;17.49;95990.09;4991401;28;20187;-43
2023/01/07 12:27:49;;;;;;;3.77;3.57;;;;;;;29.87;18.17;95981.81;4990418;28;20489;-44
2023/01/07 12:30:24;;;;;;;2.80;2.60;;;;;;;31.53;16.73;95984.38;4987348;28;20439;-43
2023/01/07 12:33:42;;;;;;;3.70;3.40;;;;;;;27.36;20.68;95982.56;4994159;28;20489;-45
2023/01/07 12:36:12;;;;;;;4.23;3.87;;;;;;;27.52;20.27;95975.38;4963675;28;20595;-43
2023/01/07 12:38:49;;;;;;;5.20;4.80;;;;;;;25.99;21.81;95962.22;4930504;28;20436;-43
2023/01/07 12:41:21;;;;;;;4.10;3.80;;;;;;;25.47;23.32;95967.53;4970377;28;20618;-43
2023/01/07 12:44:01;;;;;;;6.70;6.20;;;;;;;22.34;27.43;95966.88;4955043;28;20487;-42
2023/01/07 12:46:29;;;;;;;3.60;3.30;;;;;;;25.23;23.81;95958.94;4939204;28;20856;-42
2023/01/07 12:49:15;;;;;;;3.30;3.00;;;;;;;24.48;24.72;95962.53;4951939;28;20467;-42
2023/01/07 12:51:43;;;;;;;3.10;2.90;;;;;;;25.39;23.64;95957.56;4954987;28;21147;-43
2023/01/07 12:54:17;;;;;;;4.30;3.90;;;;;;;22.09;27.51;95954.44;4956858;28;20530;-42
2023/01/07 12:56:57;;;;;;;3.30;3.10;;;;;;;23.76;25.06;95957.13;4952377;28;20443;-42
2023/01/07 12:59:40;;;;;;;3.97;3.67;;;;;;;24.96;24.08;95952.97;4964538;28;20442;-43
2023/01/07 13:02:17;;;;;;;4.17;3.87;;;;;;;21.59;28.18;95949.19;4936384;28;20455;-42
2023/01/07 13:05:00;;;;;;;4.90;3.20;;;;;;;27.39;21.70;95953.06;4968105;28;20951;-42
2023/01/07 13:07:47;;;;;;;3.10;2.80;;;;;;;25.53;23.67;95948.31;4955489;28;20963;-42
2023/01/07 13:10:15;;;;;;;4.37;3.00;;;;;;;26.50;22.81;95954.03;4976489;28;20454;-42
2023/01/07 13:12:46;;;;;;;2.97;2.77;;;;;;;28.38;20.28;95942.72;4999539;28;20497;-44
2023/01/07 13:15:29;;;;;;;3.40;3.10;;;;;;;25.75;23.52;95934.69;5010948;28;20453;-43
2023/01/07 13:17:58;;;;;;;3.00;2.80;;;;;;;23.53;26.44;95930.19;5009032;28;20434;-42
2023/01/07 13:21:01;;;;;;;3.40;3.20;;;;;;;27.43;21.51;95933.56;5019132;28;20413;-42
2023/01/07 13:23:46;;;;;;;3.40;3.20;;;;;;;26.77;22.13;95937.97;5003440;28;20552;-43
2023/01/07 13:26:27;;;;;;;3.70;2.90;;;;;;;29.36;19.62;95929.75;5003443;28;20430;-43
2023/01/07 13:29:31;;;;;;;3.27;2.97;;;;;;;27.70;20.50;95926.66;5012820;28;20434;-42
2023/01/07 13:32:14;;;;;;;2.83;2.63;;;;;;;27.51;20.86;95922.91;4967280;28;20475;-43
2023/01/07 13:34:58;;;;;;;4.00;2.67;;;;;;;29.23;18.79;95926.56;4970628;28;20562;-42
2023/01/07 13:37:45;;;;;;;3.40;3.10;;;;;;;27.28;21.02;95918.22;4966089;28;20447;-43
2023/01/07 13:40:29;;;;;;;4.03;2.70;;;;;;;25.74;22.43;95921.88;4970536;28;20542;-42
2023/01/07 13:43:26;;;;;;;2.63;2.53;;;;;;;28.62;19.66;95916.28;4949599;28;20451;-42
2023/01/07 13:45:55;;;;;;;2.80;2.60;;;;;;;29.54;19.06;95925.41;4952655;28;20439;-42
2023/01/07 13:48:22;;;;;;;9.57;8.53;;;;;;;30.88;17.46;95915.81;4953412;28;20478;-42
2023/01/07 13:51:13;;;;;;;7.33;6.70;;;;;;;30.91;17.25;95921.03;4970033;28;20439;-42
2023/01/07 13:53:40;;;;;;;2.90;2.70;;;;;;;26.39;21.18;95914.91;4959421;28;20549;-42
2023/01/07 13:56:17;;;;;;;2.63;2.43;;;;;;;28.44;19.83;95912.00;4959146;28;20439;-42
2023/01/07 15:01:59;;;;;;;5.73;3.87;;;;;;;16.30;40.19;95881.09;5066482;27;21126;-39
2023/01/07 15:04:36;;;;;;;6.07;4.27;;;;;;;13.31;47.55;95879.22;5063881;28;20439;-39
